sensor_id;sensor_type;location;lat;lon;timestamp;P1;durP1;ratioP1;P2;durP2;ratioP2
16813;SDS011;8524;57.650;11.926;2023-08-17T00:01:07;3.33;;;1.33;;
16813;SDS011;8524;57.650;11.926;2023-08-17T00:03:34;2.50;;;1.27;;
16813;SDS011;8524;57.650;11.926;2023-08-17T00:06:01;3.17;;;1.30;;
16813;SDS011;8524;57.650;11.926;2023-08-17T00:08:28;2.27;;;1.30;;
16813;SDS011;8524;57.650;11.926;2023-08-17T00:10:55;2.53;;;1.53;;
16813;SDS011;8524;57.650;11.926;2023-08-17T00:13:24;1.93;;;1.20;;
16813;SDS011;8524;57.650;11.926;2023-08-17T00:15:51;2.93;;;1.50;;
16813;SDS011;8524;57.650;11.926;2023-08-17T00:18:18;2.07;;;1.50;;
16813;SDS011;8524;57.650;11.926;2023-08-17T00:20:45;2.07;;;1.40;;
16813;SDS011;8524;57.650;11.926;2023-08-17T00:23:13;2.30;;;1.53;;
16813;SDS011;8524;57.650;11.926;2023-08-17T00:25:40;2.00;;;1.40;;
16813;SDS011;8524;57.650;11.926;2023-08-17T00:28:07;1.80;;;1.37;;
16813;SDS011;8524;57.650;11.926;2023-08-17T00:30:35;2.00;;;1.53;;
16813;SDS011;8524;57.650;11.926;2023-08-17T00:33:03;2.10;;;1.50;;
16813;SDS011;8524;57.650;11.926;2023-08-17T00:35:30;1.50;;;1.40;;
16813;SDS011;8524;57.650;11.926;2023-08-17T00:37:57;1.50;;;1.30;;
16813;SDS011;8524;57.650;11.926;2023-08-17T00:40:24;2.03;;;1.30;;
16813;SDS011;8524;57.650;11.926;2023-08-17T00:42:51;2.30;;;1.30;;
16813;SDS011;8524;57.650;11.926;2023-08-17T00:45:18;1.90;;;1.40;;
16813;SDS011;8524;57.650;11.926;2023-08-17T00:47:48;1.87;;;1.20;;
16813;SDS011;8524;57.650;11.926;2023-08-17T00:50:15;1.50;;;1.20;;
16813;SDS011;8524;57.650;11.926;2023-08-17T00:52:42;1.63;;;1.30;;
16813;SDS011;8524;57.650;11.926;2023-08-17T00:55:09;3.03;;;1.63;;
16813;SDS011;8524;57.650;11.926;2023-08-17T00:57:38;2.43;;;1.70;;
16813;SDS011;8524;57.650;11.926;2023-08-17T01:00:07;2.60;;;1.40;;
16813;SDS011;8524;57.650;11.926;2023-08-17T01:02:36;1.70;;;1.57;;
16813;SDS011;8524;57.650;11.926;2023-08-17T01:05:05;1.90;;;1.60;;
16813;SDS011;8524;57.650;11.926;2023-08-17T01:07:33;2.90;;;1.60;;
16813;SDS011;8524;57.650;11.926;2023-08-17T01:10:00;2.87;;;1.37;;
16813;SDS011;8524;57.650;11.926;2023-08-17T01:12:29;2.47;;;1.37;;
16813;SDS011;8524;57.650;11.926;2023-08-17T01:14:59;2.47;;;1.60;;
16813;SDS011;8524;57.650;11.926;2023-08-17T01:17:33;1.63;;;1.27;;
16813;SDS011;8524;57.650;11.926;2023-08-17T01:20:06;2.67;;;1.67;;
16813;SDS011;8524;57.650;11.926;2023-08-17T01:22:37;2.77;;;1.47;;
16813;SDS011;8524;57.650;11.926;2023-08-17T01:25:09;2.70;;;1.80;;
16813;SDS011;8524;57.650;11.926;2023-08-17T01:27:36;2.53;;;1.73;;
16813;SDS011;8524;57.650;11.926;2023-08-17T01:30:06;2.33;;;1.47;;
16813;SDS011;8524;57.650;11.926;2023-08-17T01:32:36;3.20;;;1.60;;
16813;SDS011;8524;57.650;11.926;2023-08-17T01:35:09;2.63;;;1.60;;
16813;SDS011;8524;57.650;11.926;2023-08-17T01:37:42;2.53;;;1.40;;
16813;SDS011;8524;57.650;11.926;2023-08-17T01:40:11;1.87;;;1.47;;
16813;SDS011;8524;57.650;11.926;2023-08-17T01:42:41;3.70;;;1.53;;
16813;SDS011;8524;57.650;11.926;2023-08-17T01:45:09;2.37;;;1.70;;
16813;SDS011;8524;57.650;11.926;2023-08-17T01:47:37;1.80;;;1.30;;
16813;SDS011;8524;57.650;11.926;2023-08-17T01:50:04;3.00;;;1.90;;
16813;SDS011;8524;57.650;11.926;2023-08-17T01:52:32;2.77;;;1.67;;
16813;SDS011;8524;57.650;11.926;2023-08-17T01:54:59;2.93;;;1.70;;
16813;SDS011;8524;57.650;11.926;2023-08-17T01:57:27;3.23;;;1.60;;
16813;SDS011;8524;57.650;11.926;2023-08-17T01:59:54;2.90;;;1.57;;
16813;SDS011;8524;57.650;11.926;2023-08-17T02:02:21;2.00;;;1.70;;
16813;SDS011;8524;57.650;11.926;2023-08-17T02:04:48;2.40;;;1.50;;
16813;SDS011;8524;57.650;11.926;2023-08-17T02:07:15;3.07;;;1.60;;
16813;SDS011;8524;57.650;11.926;2023-08-17T02:09:42;2.93;;;1.80;;
16813;SDS011;8524;57.650;11.926;2023-08-17T02:12:09;2.53;;;1.63;;
16813;SDS011;8524;57.650;11.926;2023-08-17T02:14:38;2.63;;;1.60;;
16813;SDS011;8524;57.650;11.926;2023-08-17T02:17:05;2.70;;;1.73;;
16813;SDS011;8524;57.650;11.926;2023-08-17T02:19:33;2.13;;;1.90;;
16813;SDS011;8524;57.650;11.926;2023-08-17T02:22:00;1.97;;;1.30;;
16813;SDS011;8524;57.650;11.926;2023-08-17T02:24:27;2.67;;;1.50;;
16813;SDS011;8524;57.650;11.926;2023-08-17T02:26:54;2.67;;;1.40;;
16813;SDS011;8524;57.650;11.926;2023-08-17T02:29:22;1.80;;;1.67;;
16813;SDS011;8524;57.650;11.926;2023-08-17T02:31:50;2.73;;;1.43;;
16813;SDS011;8524;57.650;11.926;2023-08-17T02:34:17;1.83;;;1.40;;
16813;SDS011;8524;57.650;11.926;2023-08-17T02:36:44;2.70;;;1.90;;
16813;SDS011;8524;57.650;11.926;2023-08-17T02:39:11;2.83;;;1.67;;
16813;SDS011;8524;57.650;11.926;2023-08-17T02:41:38;2.60;;;1.80;;
16813;SDS011;8524;57.650;11.926;2023-08-17T02:44:05;2.93;;;1.80;;
16813;SDS011;8524;57.650;11.926;2023-08-17T02:46:33;2.37;;;1.60;;
16813;SDS011;8524;57.650;11.926;2023-08-17T02:49:01;2.60;;;1.80;;
16813;SDS011;8524;57.650;11.926;2023-08-17T02:51:28;3.20;;;1.70;;
16813;SDS011;8524;57.650;11.926;2023-08-17T02:53:55;1.97;;;1.77;;
16813;SDS011;8524;57.650;11.926;2023-08-17T02:56:22;2.93;;;1.77;;
16813;SDS011;8524;57.650;11.926;2023-08-17T02:58:49;2.70;;;1.60;;
16813;SDS011;8524;57.650;11.926;2023-08-17T03:01:16;2.07;;;1.77;;
16813;SDS011;8524;57.650;11.926;2023-08-17T03:03:43;2.23;;;1.87;;
16813;SDS011;8524;57.650;11.926;2023-08-17T03:06:12;3.13;;;1.53;;
16813;SDS011;8524;57.650;11.926;2023-08-17T03:08:39;3.37;;;1.70;;
16813;SDS011;8524;57.650;11.926;2023-08-17T03:11:06;2.17;;;1.60;;
16813;SDS011;8524;57.650;11.926;2023-08-17T03:13:35;2.53;;;1.60;;
16813;SDS011;8524;57.650;11.926;2023-08-17T03:16:02;2.13;;;1.73;;
16813;SDS011;8524;57.650;11.926;2023-08-17T03:18:29;1.70;;;1.60;;
16813;SDS011;8524;57.650;11.926;2023-08-17T03:20:56;2.10;;;1.60;;
16813;SDS011;8524;57.650;11.926;2023-08-17T03:23:24;2.83;;;1.90;;
16813;SDS011;8524;57.650;11.926;2023-08-17T03:25:51;2.57;;;1.70;;
16813;SDS011;8524;57.650;11.926;2023-08-17T03:28:18;2.33;;;1.57;;
16813;SDS011;8524;57.650;11.926;2023-08-17T03:30:45;2.53;;;1.60;;
16813;SDS011;8524;57.650;11.926;2023-08-17T03:33:13;2.00;;;1.63;;
16813;SDS011;8524;57.650;11.926;2023-08-17T03:35:40;3.67;;;1.90;;
16813;SDS011;8524;57.650;11.926;2023-08-17T03:38:07;3.80;;;2.23;;
16813;SDS011;8524;57.650;11.926;2023-08-17T03:40:35;1.97;;;1.63;;
16813;SDS011;8524;57.650;11.926;2023-08-17T03:43:02;2.93;;;1.80;;
16813;SDS011;8524;57.650;11.926;2023-08-17T03:45:29;3.10;;;2.17;;
16813;SDS011;8524;57.650;11.926;2023-08-17T03:47:57;3.53;;;1.80;;
16813;SDS011;8524;57.650;11.926;2023-08-17T03:50:25;2.10;;;1.80;;
16813;SDS011;8524;57.650;11.926;2023-08-17T03:52:54;2.93;;;1.83;;
16813;SDS011;8524;57.650;11.926;2023-08-17T03:55:21;3.03;;;2.00;;
16813;SDS011;8524;57.650;11.926;2023-08-17T03:57:49;2.80;;;2.00;;
16813;SDS011;8524;57.650;11.926;2023-08-17T04:00:16;4.10;;;2.10;;
16813;SDS011;8524;57.650;11.926;2023-08-17T04:02:44;3.37;;;1.90;;
16813;SDS011;8524;57.650;11.926;2023-08-17T04:05:12;2.83;;;1.97;;
16813;SDS011;8524;57.650;11.926;2023-08-17T04:07:39;2.50;;;1.80;;
16813;SDS011;8524;57.650;11.926;2023-08-17T04:10:06;2.73;;;2.00;;
16813;SDS011;8524;57.650;11.926;2023-08-17T04:12:34;2.13;;;1.73;;
16813;SDS011;8524;57.650;11.926;2023-08-17T04:15:03;2.70;;;1.63;;
16813;SDS011;8524;57.650;11.926;2023-08-17T04:17:31;2.73;;;2.10;;
16813;SDS011;8524;57.650;11.926;2023-08-17T04:19:58;3.87;;;1.93;;
16813;SDS011;8524;57.650;11.926;2023-08-17T04:22:25;3.13;;;1.97;;
16813;SDS011;8524;57.650;11.926;2023-08-17T04:24:52;3.23;;;1.93;;
16813;SDS011;8524;57.650;11.926;2023-08-17T04:27:19;3.87;;;2.10;;
16813;SDS011;8524;57.650;11.926;2023-08-17T04:29:46;2.03;;;1.83;;
16813;SDS011;8524;57.650;11.926;2023-08-17T04:32:15;2.33;;;1.83;;
16813;SDS011;8524;57.650;11.926;2023-08-17T04:34:42;2.50;;;2.30;;
16813;SDS011;8524;57.650;11.926;2023-08-17T04:37:09;3.97;;;2.30;;
16813;SDS011;8524;57.650;11.926;2023-08-17T04:39:36;3.03;;;1.80;;
16813;SDS011;8524;57.650;11.926;2023-08-17T04:42:04;3.50;;;2.00;;
16813;SDS011;8524;57.650;11.926;2023-08-17T04:44:31;3.20;;;2.10;;
16813;SDS011;8524;57.650;11.926;2023-08-17T04:46:58;2.53;;;1.90;;
16813;SDS011;8524;57.650;11.926;2023-08-17T04:49:26;3.23;;;2.30;;
16813;SDS011;8524;57.650;11.926;2023-08-17T04:51:54;4.03;;;2.20;;
16813;SDS011;8524;57.650;11.926;2023-08-17T04:54:21;2.80;;;2.20;;
16813;SDS011;8524;57.650;11.926;2023-08-17T04:56:48;3.67;;;2.57;;
16813;SDS011;8524;57.650;11.926;2023-08-17T04:59:15;3.43;;;2.53;;
16813;SDS011;8524;57.650;11.926;2023-08-17T05:01:41;3.90;;;2.57;;
16813;SDS011;8524;57.650;11.926;2023-08-17T05:04:08;3.90;;;2.50;;
16813;SDS011;8524;57.650;11.926;2023-08-17T05:06:37;4.27;;;2.50;;
16813;SDS011;8524;57.650;11.926;2023-08-17T05:09:04;4.33;;;2.40;;
16813;SDS011;8524;57.650;11.926;2023-08-17T05:11:31;4.37;;;2.40;;
16813;SDS011;8524;57.650;11.926;2023-08-17T05:13:58;3.47;;;2.60;;
16813;SDS011;8524;57.650;11.926;2023-08-17T05:16:25;3.13;;;2.55;;
16813;SDS011;8524;57.650;11.926;2023-08-17T05:18:52;3.50;;;2.30;;
16813;SDS011;8524;57.650;11.926;2023-08-17T05:21:19;4.70;;;2.57;;
16813;SDS011;8524;57.650;11.926;2023-08-17T05:23:48;4.37;;;2.57;;
16813;SDS011;8524;57.650;11.926;2023-08-17T05:26:15;3.00;;;2.50;;
16813;SDS011;8524;57.650;11.926;2023-08-17T05:28:42;5.30;;;3.00;;
16813;SDS011;8524;57.650;11.926;2023-08-17T05:31:10;6.20;;;2.90;;
16813;SDS011;8524;57.650;11.926;2023-08-17T05:33:37;3.90;;;2.70;;
16813;SDS011;8524;57.650;11.926;2023-08-17T05:36:06;5.10;;;2.83;;
16813;SDS011;8524;57.650;11.926;2023-08-17T05:38:33;3.83;;;2.40;;
16813;SDS011;8524;57.650;11.926;2023-08-17T05:41:01;3.77;;;2.30;;
16813;SDS011;8524;57.650;11.926;2023-08-17T05:43:28;4.03;;;2.30;;
16813;SDS011;8524;57.650;11.926;2023-08-17T05:45:56;3.17;;;2.50;;
16813;SDS011;8524;57.650;11.926;2023-08-17T05:48:25;5.30;;;2.50;;
16813;SDS011;8524;57.650;11.926;2023-08-17T05:50:52;3.90;;;2.77;;
16813;SDS011;8524;57.650;11.926;2023-08-17T05:53:21;2.83;;;2.13;;
16813;SDS011;8524;57.650;11.926;2023-08-17T05:55:48;4.70;;;2.57;;
16813;SDS011;8524;57.650;11.926;2023-08-17T05:58:16;3.07;;;2.30;;
16813;SDS011;8524;57.650;11.926;2023-08-17T06:00:44;4.33;;;2.60;;
16813;SDS011;8524;57.650;11.926;2023-08-17T06:03:11;4.03;;;2.53;;
16813;SDS011;8524;57.650;11.926;2023-08-17T06:05:39;3.83;;;2.00;;
16813;SDS011;8524;57.650;11.926;2023-08-17T06:08:06;4.17;;;2.70;;
16813;SDS011;8524;57.650;11.926;2023-08-17T06:10:33;3.10;;;2.10;;
16813;SDS011;8524;57.650;11.926;2023-08-17T06:13:00;5.00;;;2.60;;
16813;SDS011;8524;57.650;11.926;2023-08-17T06:15:28;4.77;;;2.47;;
16813;SDS011;8524;57.650;11.926;2023-08-17T06:17:55;6.03;;;3.00;;
16813;SDS011;8524;57.650;11.926;2023-08-17T06:20:22;3.97;;;2.57;;
16813;SDS011;8524;57.650;11.926;2023-08-17T06:22:49;4.63;;;2.97;;
16813;SDS011;8524;57.650;11.926;2023-08-17T06:25:16;2.90;;;2.30;;
16813;SDS011;8524;57.650;11.926;2023-08-17T06:27:44;4.63;;;2.60;;
16813;SDS011;8524;57.650;11.926;2023-08-17T06:30:11;5.87;;;2.97;;
16813;SDS011;8524;57.650;11.926;2023-08-17T06:32:40;4.77;;;2.20;;
16813;SDS011;8524;57.650;11.926;2023-08-17T06:35:08;4.27;;;2.40;;
16813;SDS011;8524;57.650;11.926;2023-08-17T06:37:37;2.97;;;2.37;;
16813;SDS011;8524;57.650;11.926;2023-08-17T06:40:05;4.07;;;2.40;;
16813;SDS011;8524;57.650;11.926;2023-08-17T06:42:34;3.27;;;2.50;;
16813;SDS011;8524;57.650;11.926;2023-08-17T06:45:01;3.40;;;2.20;;
16813;SDS011;8524;57.650;11.926;2023-08-17T06:47:28;2.97;;;2.07;;
16813;SDS011;8524;57.650;11.926;2023-08-17T06:49:57;5.47;;;2.10;;
16813;SDS011;8524;57.650;11.926;2023-08-17T06:52:24;2.40;;;2.20;;
16813;SDS011;8524;57.650;11.926;2023-08-17T06:54:52;3.87;;;2.17;;
16813;SDS011;8524;57.650;11.926;2023-08-17T06:57:19;3.87;;;2.20;;
16813;SDS011;8524;57.650;11.926;2023-08-17T06:59:46;3.03;;;1.88;;
16813;SDS011;8524;57.650;11.926;2023-08-17T07:02:14;3.50;;;2.03;;
16813;SDS011;8524;57.650;11.926;2023-08-17T07:04:41;4.53;;;1.60;;
16813;SDS011;8524;57.650;11.926;2023-08-17T07:07:09;2.77;;;1.73;;
16813;SDS011;8524;57.650;11.926;2023-08-17T07:09:39;3.07;;;1.70;;
16813;SDS011;8524;57.650;11.926;2023-08-17T07:12:06;2.80;;;1.70;;
16813;SDS011;8524;57.650;11.926;2023-08-17T07:14:33;2.70;;;1.47;;
16813;SDS011;8524;57.650;11.926;2023-08-17T07:17:00;1.87;;;1.57;;
16813;SDS011;8524;57.650;11.926;2023-08-17T07:19:27;3.17;;;1.87;;
16813;SDS011;8524;57.650;11.926;2023-08-17T07:21:55;2.40;;;1.33;;
16813;SDS011;8524;57.650;11.926;2023-08-17T07:24:23;1.90;;;1.20;;
16813;SDS011;8524;57.650;11.926;2023-08-17T07:26:50;1.67;;;1.30;;
16813;SDS011;8524;57.650;11.926;2023-08-17T07:29:17;2.47;;;1.43;;
16813;SDS011;8524;57.650;11.926;2023-08-17T07:31:44;3.10;;;1.60;;
16813;SDS011;8524;57.650;11.926;2023-08-17T07:34:11;1.90;;;1.47;;
16813;SDS011;8524;57.650;11.926;2023-08-17T07:36:38;3.00;;;1.50;;
16813;SDS011;8524;57.650;11.926;2023-08-17T07:39:05;1.80;;;1.37;;
16813;SDS011;8524;57.650;11.926;2023-08-17T07:41:34;3.10;;;1.63;;
16813;SDS011;8524;57.650;11.926;2023-08-17T07:44:01;2.17;;;1.40;;
16813;SDS011;8524;57.650;11.926;2023-08-17T07:46:28;3.30;;;1.90;;
16813;SDS011;8524;57.650;11.926;2023-08-17T07:48:56;2.10;;;1.40;;
16813;SDS011;8524;57.650;11.926;2023-08-17T07:51:23;2.83;;;1.67;;
16813;SDS011;8524;57.650;11.926;2023-08-17T07:53:50;2.40;;;1.60;;
16813;SDS011;8524;57.650;11.926;2023-08-17T07:56:17;1.70;;;1.40;;
16813;SDS011;8524;57.650;11.926;2023-08-17T07:58:45;2.70;;;1.40;;
16813;SDS011;8524;57.650;11.926;2023-08-17T08:01:12;1.87;;;1.30;;
16813;SDS011;8524;57.650;11.926;2023-08-17T08:03:39;1.57;;;1.37;;
16813;SDS011;8524;57.650;11.926;2023-08-17T08:06:06;1.47;;;1.20;;
16813;SDS011;8524;57.650;11.926;2023-08-17T08:08:33;2.30;;;1.20;;
16813;SDS011;8524;57.650;11.926;2023-08-17T08:11:00;1.50;;;1.40;;
16813;SDS011;8524;57.650;11.926;2023-08-17T08:13:29;2.03;;;1.40;;
16813;SDS011;8524;57.650;11.926;2023-08-17T08:15:58;1.93;;;1.23;;
16813;SDS011;8524;57.650;11.926;2023-08-17T08:18:25;2.70;;;1.30;;
16813;SDS011;8524;57.650;11.926;2023-08-17T08:20:52;3.27;;;1.33;;
16813;SDS011;8524;57.650;11.926;2023-08-17T08:23:19;2.70;;;1.40;;
16813;SDS011;8524;57.650;11.926;2023-08-17T08:25:46;2.30;;;1.40;;
16813;SDS011;8524;57.650;11.926;2023-08-17T08:28:14;4.87;;;1.60;;
16813;SDS011;8524;57.650;11.926;2023-08-17T08:30:41;1.73;;;1.20;;
16813;SDS011;8524;57.650;11.926;2023-08-17T08:33:09;2.50;;;1.33;;
16813;SDS011;8524;57.650;11.926;2023-08-17T08:35:36;2.30;;;1.20;;
16813;SDS011;8524;57.650;11.926;2023-08-17T08:38:05;1.57;;;1.10;;
16813;SDS011;8524;57.650;11.926;2023-08-17T08:40:32;2.47;;;1.40;;
16813;SDS011;8524;57.650;11.926;2023-08-17T08:43:02;2.23;;;1.63;;
16813;SDS011;8524;57.650;11.926;2023-08-17T08:45:29;1.33;;;1.20;;
16813;SDS011;8524;57.650;11.926;2023-08-17T08:47:57;2.00;;;1.30;;
16813;SDS011;8524;57.650;11.926;2023-08-17T08:50:28;1.65;;;1.15;;
16813;SDS011;8524;57.650;11.926;2023-08-17T08:52:58;2.17;;;1.50;;
16813;SDS011;8524;57.650;11.926;2023-08-17T08:55:27;2.50;;;1.37;;
16813;SDS011;8524;57.650;11.926;2023-08-17T08:57:55;1.97;;;1.40;;
16813;SDS011;8524;57.650;11.926;2023-08-17T09:00:24;2.67;;;1.63;;
16813;SDS011;8524;57.650;11.926;2023-08-17T09:02:51;1.80;;;1.30;;
16813;SDS011;8524;57.650;11.926;2023-08-17T09:05:19;4.90;;;1.27;;
16813;SDS011;8524;57.650;11.926;2023-08-17T09:07:49;1.63;;;1.10;;
16813;SDS011;8524;57.650;11.926;2023-08-17T09:10:18;1.40;;;1.10;;
16813;SDS011;8524;57.650;11.926;2023-08-17T09:12:45;2.73;;;1.53;;
16813;SDS011;8524;57.650;11.926;2023-08-17T09:15:13;2.27;;;1.40;;
16813;SDS011;8524;57.650;11.926;2023-08-17T09:17:40;1.60;;;1.10;;
16813;SDS011;8524;57.650;11.926;2023-08-17T09:20:09;2.23;;;1.20;;
16813;SDS011;8524;57.650;11.926;2023-08-17T09:22:37;3.83;;;1.63;;
16813;SDS011;8524;57.650;11.926;2023-08-17T09:25:07;1.50;;;1.00;;
16813;SDS011;8524;57.650;11.926;2023-08-17T09:27:35;1.40;;;1.30;;
16813;SDS011;8524;57.650;11.926;2023-08-17T09:30:03;2.30;;;1.30;;
16813;SDS011;8524;57.650;11.926;2023-08-17T09:32:31;1.90;;;1.30;;
16813;SDS011;8524;57.650;11.926;2023-08-17T09:35:00;2.63;;;1.33;;
16813;SDS011;8524;57.650;11.926;2023-08-17T09:37:28;2.00;;;1.20;;
16813;SDS011;8524;57.650;11.926;2023-08-17T09:39:56;2.57;;;1.10;;
16813;SDS011;8524;57.650;11.926;2023-08-17T09:42:24;2.70;;;1.47;;
16813;SDS011;8524;57.650;11.926;2023-08-17T09:44:52;3.17;;;1.70;;
16813;SDS011;8524;57.650;11.926;2023-08-17T09:47:21;2.63;;;1.50;;
16813;SDS011;8524;57.650;11.926;2023-08-17T09:49:48;2.10;;;1.40;;
16813;SDS011;8524;57.650;11.926;2023-08-17T09:52:16;2.57;;;1.50;;
16813;SDS011;8524;57.650;11.926;2023-08-17T09:54:43;2.13;;;1.40;;
16813;SDS011;8524;57.650;11.926;2023-08-17T09:57:11;1.63;;;1.40;;
16813;SDS011;8524;57.650;11.926;2023-08-17T09:59:40;2.57;;;1.40;;
16813;SDS011;8524;57.650;11.926;2023-08-17T10:02:10;2.90;;;1.20;;
16813;SDS011;8524;57.650;11.926;2023-08-17T10:04:44;2.37;;;1.30;;
16813;SDS011;8524;57.650;11.926;2023-08-17T10:07:16;3.97;;;1.40;;
16813;SDS011;8524;57.650;11.926;2023-08-17T10:09:48;3.37;;;1.53;;
16813;SDS011;8524;57.650;11.926;2023-08-17T10:12:23;2.97;;;1.27;;
16813;SDS011;8524;57.650;11.926;2023-08-17T10:14:55;1.83;;;1.27;;
16813;SDS011;8524;57.650;11.926;2023-08-17T10:17:26;3.03;;;1.27;;
16813;SDS011;8524;57.650;11.926;2023-08-17T10:19:56;2.93;;;1.40;;
16813;SDS011;8524;57.650;11.926;2023-08-17T10:22:26;1.57;;;1.40;;
16813;SDS011;8524;57.650;11.926;2023-08-17T10:24:57;3.10;;;1.40;;
16813;SDS011;8524;57.650;11.926;2023-08-17T10:27:26;1.20;;;1.10;;
16813;SDS011;8524;57.650;11.926;2023-08-17T10:29:55;2.07;;;1.40;;
16813;SDS011;8524;57.650;11.926;2023-08-17T10:32:22;1.70;;;1.60;;
16813;SDS011;8524;57.650;11.926;2023-08-17T10:34:50;3.63;;;1.50;;
16813;SDS011;8524;57.650;11.926;2023-08-17T10:37:18;2.17;;;1.40;;
16813;SDS011;8524;57.650;11.926;2023-08-17T10:39:47;2.10;;;1.20;;
16813;SDS011;8524;57.650;11.926;2023-08-17T10:42:15;2.30;;;1.47;;
16813;SDS011;8524;57.650;11.926;2023-08-17T10:44:57;3.13;;;1.57;;
16813;SDS011;8524;57.650;11.926;2023-08-17T10:47:26;2.43;;;1.40;;
16813;SDS011;8524;57.650;11.926;2023-08-17T10:49:55;1.67;;;1.40;;
16813;SDS011;8524;57.650;11.926;2023-08-17T10:52:24;2.47;;;1.10;;
16813;SDS011;8524;57.650;11.926;2023-08-17T10:54:55;2.73;;;1.60;;
16813;SDS011;8524;57.650;11.926;2023-08-17T10:57:27;1.23;;;1.00;;
16813;SDS011;8524;57.650;11.926;2023-08-17T11:00:07;2.57;;;1.40;;
16813;SDS011;8524;57.650;11.926;2023-08-17T11:02:39;2.27;;;1.40;;
16813;SDS011;8524;57.650;11.926;2023-08-17T11:05:06;2.50;;;1.23;;
16813;SDS011;8524;57.650;11.926;2023-08-17T11:07:38;2.20;;;1.23;;
16813;SDS011;8524;57.650;11.926;2023-08-17T11:12:55;3.50;;;1.33;;
16813;SDS011;8524;57.650;11.926;2023-08-17T11:15:26;1.83;;;1.20;;
16813;SDS011;8524;57.650;11.926;2023-08-17T11:18:04;1.77;;;1.00;;
16813;SDS011;8524;57.650;11.926;2023-08-17T11:20:32;2.63;;;1.30;;
16813;SDS011;8524;57.650;11.926;2023-08-17T11:22:59;1.67;;;1.10;;
16813;SDS011;8524;57.650;11.926;2023-08-17T11:25:27;2.03;;;1.30;;
16813;SDS011;8524;57.650;11.926;2023-08-17T11:27:54;1.43;;;1.20;;
16813;SDS011;8524;57.650;11.926;2023-08-17T11:30:21;1.97;;;1.07;;
16813;SDS011;8524;57.650;11.926;2023-08-17T11:32:51;3.07;;;1.40;;
16813;SDS011;8524;57.650;11.926;2023-08-17T11:35:19;2.03;;;1.40;;
16813;SDS011;8524;57.650;11.926;2023-08-17T11:37:46;1.43;;;1.30;;
16813;SDS011;8524;57.650;11.926;2023-08-17T11:40:14;2.03;;;1.60;;
16813;SDS011;8524;57.650;11.926;2023-08-17T11:42:41;1.27;;;1.17;;
16813;SDS011;8524;57.650;11.926;2023-08-17T11:45:09;1.73;;;1.10;;
16813;SDS011;8524;57.650;11.926;2023-08-17T11:47:37;2.07;;;1.20;;
16813;SDS011;8524;57.650;11.926;2023-08-17T11:50:08;2.40;;;1.40;;
16813;SDS011;8524;57.650;11.926;2023-08-17T11:52:36;1.77;;;1.23;;
16813;SDS011;8524;57.650;11.926;2023-08-17T11:55:03;2.53;;;1.33;;
16813;SDS011;8524;57.650;11.926;2023-08-17T11:57:32;1.90;;;1.10;;
16813;SDS011;8524;57.650;11.926;2023-08-17T11:59:59;1.20;;;1.10;;
16813;SDS011;8524;57.650;11.926;2023-08-17T12:02:28;2.40;;;1.20;;
16813;SDS011;8524;57.650;11.926;2023-08-17T12:04:56;1.80;;;1.20;;
16813;SDS011;8524;57.650;11.926;2023-08-17T12:07:25;1.40;;;1.10;;
16813;SDS011;8524;57.650;11.926;2023-08-17T12:09:52;1.87;;;1.40;;
16813;SDS011;8524;57.650;11.926;2023-08-17T12:12:21;2.20;;;1.20;;
16813;SDS011;8524;57.650;11.926;2023-08-17T12:14:48;2.07;;;1.10;;
16813;SDS011;8524;57.650;11.926;2023-08-17T12:17:16;2.20;;;1.33;;
16813;SDS011;8524;57.650;11.926;2023-08-17T12:19:44;1.13;;;1.03;;
16813;SDS011;8524;57.650;11.926;2023-08-17T12:22:15;1.20;;;1.07;;
16813;SDS011;8524;57.650;11.926;2023-08-17T12:24:44;1.23;;;1.10;;
16813;SDS011;8524;57.650;11.926;2023-08-17T12:27:12;1.60;;;1.10;;
16813;SDS011;8524;57.650;11.926;2023-08-17T12:29:45;2.57;;;1.30;;
16813;SDS011;8524;57.650;11.926;2023-08-17T12:32:13;1.10;;;1.00;;
16813;SDS011;8524;57.650;11.926;2023-08-17T12:34:41;1.27;;;1.10;;
16813;SDS011;8524;57.650;11.926;2023-08-17T12:37:08;1.70;;;1.00;;
16813;SDS011;8524;57.650;11.926;2023-08-17T12:39:36;1.35;;;1.00;;
16813;SDS011;8524;57.650;11.926;2023-08-17T12:42:04;0.97;;;0.90;;
16813;SDS011;8524;57.650;11.926;2023-08-17T12:44:32;1.33;;;1.00;;
16813;SDS011;8524;57.650;11.926;2023-08-17T12:46:59;1.33;;;0.90;;
16813;SDS011;8524;57.650;11.926;2023-08-17T12:49:26;0.80;;;0.80;;
16813;SDS011;8524;57.650;11.926;2023-08-17T12:51:53;1.20;;;1.10;;
16813;SDS011;8524;57.650;11.926;2023-08-17T12:54:20;1.37;;;0.90;;
16813;SDS011;8524;57.650;11.926;2023-08-17T12:56:47;1.87;;;0.90;;
16813;SDS011;8524;57.650;11.926;2023-08-17T12:59:16;1.40;;;0.80;;
16813;SDS011;8524;57.650;11.926;2023-08-17T13:01:43;1.20;;;0.90;;
16813;SDS011;8524;57.650;11.926;2023-08-17T13:04:10;1.73;;;1.10;;
16813;SDS011;8524;57.650;11.926;2023-08-17T13:06:37;1.30;;;0.80;;
16813;SDS011;8524;57.650;11.926;2023-08-17T13:09:04;1.13;;;0.97;;
16813;SDS011;8524;57.650;11.926;2023-08-17T13:11:32;1.20;;;1.10;;
16813;SDS011;8524;57.650;11.926;2023-08-17T13:13:59;1.70;;;1.30;;
16813;SDS011;8524;57.650;11.926;2023-08-17T13:16:27;1.00;;;0.90;;
16813;SDS011;8524;57.650;11.926;2023-08-17T13:18:54;1.00;;;0.90;;
16813;SDS011;8524;57.650;11.926;2023-08-17T13:21:21;0.80;;;0.80;;
16813;SDS011;8524;57.650;11.926;2023-08-17T13:23:48;2.10;;;1.20;;
16813;SDS011;8524;57.650;11.926;2023-08-17T13:26:15;2.03;;;1.10;;
16813;SDS011;8524;57.650;11.926;2023-08-17T13:28:42;2.00;;;1.40;;
16813;SDS011;8524;57.650;11.926;2023-08-17T13:31:09;1.67;;;1.17;;
16813;SDS011;8524;57.650;11.926;2023-08-17T13:33:38;2.33;;;1.10;;
16813;SDS011;8524;57.650;11.926;2023-08-17T13:36:05;1.60;;;1.10;;
16813;SDS011;8524;57.650;11.926;2023-08-17T13:38:32;1.70;;;1.20;;
16813;SDS011;8524;57.650;11.926;2023-08-17T13:40:59;1.23;;;1.00;;
16813;SDS011;8524;57.650;11.926;2023-08-17T13:43:26;1.33;;;1.20;;
16813;SDS011;8524;57.650;11.926;2023-08-17T13:45:53;1.17;;;1.07;;
16813;SDS011;8524;57.650;11.926;2023-08-17T13:48:20;1.20;;;0.97;;
16813;SDS011;8524;57.650;11.926;2023-08-17T13:50:49;1.47;;;1.00;;
16813;SDS011;8524;57.650;11.926;2023-08-17T13:53:16;1.60;;;1.10;;
16813;SDS011;8524;57.650;11.926;2023-08-17T13:55:43;0.90;;;0.90;;
16813;SDS011;8524;57.650;11.926;2023-08-17T13:58:10;2.53;;;1.00;;
16813;SDS011;8524;57.650;11.926;2023-08-17T14:00:37;1.47;;;1.00;;
16813;SDS011;8524;57.650;11.926;2023-08-17T14:03:04;1.80;;;0.90;;
16813;SDS011;8524;57.650;11.926;2023-08-17T14:05:31;1.33;;;0.90;;
16813;SDS011;8524;57.650;11.926;2023-08-17T14:08:00;2.50;;;1.07;;
16813;SDS011;8524;57.650;11.926;2023-08-17T14:10:29;1.33;;;1.00;;
16813;SDS011;8524;57.650;11.926;2023-08-17T14:12:56;1.60;;;1.10;;
16813;SDS011;8524;57.650;11.926;2023-08-17T14:15:23;1.57;;;1.00;;
16813;SDS011;8524;57.650;11.926;2023-08-17T14:17:50;1.77;;;1.10;;
16813;SDS011;8524;57.650;11.926;2023-08-17T14:20:17;0.90;;;0.90;;
16813;SDS011;8524;57.650;11.926;2023-08-17T14:22:44;0.90;;;0.77;;
16813;SDS011;8524;57.650;11.926;2023-08-17T14:25:12;1.03;;;0.90;;
16813;SDS011;8524;57.650;11.926;2023-08-17T14:27:41;1.43;;;1.17;;
16813;SDS011;8524;57.650;11.926;2023-08-17T14:30:08;1.87;;;1.03;;
16813;SDS011;8524;57.650;11.926;2023-08-17T14:32:35;1.27;;;1.00;;
16813;SDS011;8524;57.650;11.926;2023-08-17T14:35:02;1.93;;;1.10;;
16813;SDS011;8524;57.650;11.926;2023-08-17T14:37:30;0.80;;;0.80;;
16813;SDS011;8524;57.650;11.926;2023-08-17T14:39:57;1.80;;;1.47;;
16813;SDS011;8524;57.650;11.926;2023-08-17T14:42:25;1.80;;;1.10;;
16813;SDS011;8524;57.650;11.926;2023-08-17T14:44:54;1.13;;;1.03;;
16813;SDS011;8524;57.650;11.926;2023-08-17T14:47:21;1.70;;;1.30;;
16813;SDS011;8524;57.650;11.926;2023-08-17T14:49:48;1.92;;;1.20;;
16813;SDS011;8524;57.650;11.926;2023-08-17T14:52:15;1.97;;;1.10;;
16813;SDS011;8524;57.650;11.926;2023-08-17T14:54:43;2.00;;;1.00;;